createdAt,value
2019-06-20T00:00:50.768Z,6.60
2019-06-20T00:03:20.628Z,5.13
2019-06-20T00:05:50.352Z,6.03
2019-06-20T00:08:19.697Z,6.23
2019-06-20T00:10:49.063Z,5.33
2019-06-20T00:13:19.009Z,5.37
2019-06-20T00:15:48.325Z,7.27
2019-06-20T00:18:17.887Z,9.37
2019-06-20T00:20:51.942Z,7.00
2019-06-20T00:23:25.669Z,8.93
2019-06-20T00:25:59.404Z,7.10
2019-06-20T00:28:34.474Z,5.30
2019-06-20T00:31:08.273Z,5.23
2019-06-20T00:33:41.402Z,6.23
2019-06-20T00:36:13.919Z,6.50
2019-06-20T00:39:00.613Z,6.57
2019-06-20T00:41:38.591Z,4.43
2019-06-20T00:44:13.914Z,7.30
2019-06-20T00:46:47.828Z,5.27
2019-06-20T00:49:21.411Z,6.87
2019-06-20T00:51:55.077Z,4.50
2019-06-20T00:54:50.330Z,8.83
2019-06-20T00:57:22.591Z,7.23
2019-06-20T00:59:55.685Z,7.07
2019-06-20T01:02:28.888Z,8.27
2019-06-20T01:05:01.813Z,7.47
2019-06-20T01:07:36.681Z,5.43
2019-06-20T01:10:12.046Z,7.27
2019-06-20T01:12:48.350Z,9.13
2019-06-20T01:15:24.125Z,6.67
2019-06-20T01:17:57.251Z,8.50
2019-06-20T01:20:37.932Z,6.00
2019-06-20T01:23:15.390Z,5.87
2019-06-20T01:25:51.059Z,7.83
2019-06-20T01:28:44.017Z,5.67
2019-06-20T01:31:18.790Z,7.43
2019-06-20T01:33:55.507Z,4.20
2019-06-20T01:39:49.677Z,5.60
2019-06-20T01:42:23.913Z,5.43
2019-06-20T01:45:00.906Z,6.50
2019-06-20T01:47:36.214Z,6.13
2019-06-20T01:50:08.253Z,7.23
2019-06-20T01:52:54.400Z,5.67
2019-06-20T01:55:28.205Z,6.77
2019-06-20T01:58:03.998Z,4.47
2019-06-20T02:00:51.852Z,5.83
2019-06-20T02:03:27.567Z,7.47
2019-06-20T02:06:01.832Z,8.83
2019-06-20T02:08:36.558Z,10.07
2019-06-20T02:11:12.494Z,12.90
2019-06-20T02:13:43.542Z,10.93
2019-06-20T02:16:17.326Z,8.07
2019-06-20T02:18:51.069Z,10.90
2019-06-20T02:21:25.433Z,6.90
2019-06-20T02:24:06.362Z,6.43
2019-06-20T02:26:35.706Z,5.63
2019-06-20T02:32:34.161Z,6.33
2019-06-20T02:35:03.605Z,7.17
2019-06-20T02:37:33.306Z,5.80
2019-06-20T02:40:02.679Z,4.97
2019-06-20T02:42:32.067Z,6.80
2019-06-20T02:45:01.498Z,6.57
2019-06-20T02:47:30.942Z,7.03
2019-06-20T02:50:00.372Z,8.10
2019-06-20T02:52:30.093Z,8.27
2019-06-20T02:54:59.490Z,9.83
2019-06-20T02:57:28.884Z,8.80
2019-06-20T02:59:58.243Z,4.13
2019-06-20T03:02:27.645Z,8.33
2019-06-20T03:04:57.123Z,6.20
2019-06-20T03:07:26.566Z,7.60
2019-06-20T03:09:56.338Z,6.70
2019-06-20T03:12:25.821Z,7.23
2019-06-20T03:14:55.619Z,9.13
2019-06-20T03:17:25.650Z,7.33
2019-06-20T03:19:55.066Z,5.80
2019-06-20T03:22:24.428Z,6.73
2019-06-20T03:24:55.118Z,4.40
2019-06-20T03:27:24.437Z,8.57
2019-06-20T03:29:54.385Z,7.03
2019-06-20T03:32:23.800Z,5.83
2019-06-20T03:34:53.192Z,5.53
2019-06-20T03:37:22.543Z,6.23
2019-06-20T03:39:52.391Z,9.87
2019-06-20T03:42:22.316Z,6.17
2019-06-20T03:45:01.685Z,7.13
2019-06-20T03:47:22.889Z,6.03
2019-06-20T03:49:52.212Z,9.10
2019-06-20T03:52:21.548Z,9.27
2019-06-20T03:54:51.562Z,8.17
2019-06-20T03:57:21.025Z,9.63
2019-06-20T03:59:50.406Z,8.37
2019-06-20T04:02:19.816Z,7.37
2019-06-20T04:04:50.578Z,10.20
2019-06-20T04:07:19.983Z,7.53
2019-06-20T04:09:49.356Z,5.63
2019-06-20T04:12:19.482Z,6.97
2019-06-20T04:14:49.349Z,7.80
2019-06-20T04:17:19.169Z,6.30
2019-06-20T04:19:48.465Z,6.97
2019-06-20T04:22:17.912Z,8.53
2019-06-20T04:24:47.573Z,6.27
2019-06-20T04:27:17.006Z,7.00
2019-06-20T04:29:46.744Z,6.57
2019-06-20T04:32:17.244Z,8.40
2019-06-20T04:34:46.685Z,5.23
2019-06-20T04:37:16.155Z,5.63
2019-06-20T04:39:45.513Z,5.57
2019-06-20T04:42:18.616Z,8.63
2019-06-20T04:44:47.328Z,7.20
2019-06-20T04:47:19.008Z,5.07
2019-06-20T04:49:48.373Z,5.63
2019-06-20T04:52:17.915Z,6.83
2019-06-20T04:54:47.809Z,6.53
2019-06-20T04:57:17.376Z,6.13
2019-06-20T04:59:48.414Z,7.40
2019-06-20T05:02:19.809Z,7.33
2019-06-20T05:04:49.532Z,6.27
2019-06-20T05:07:21.107Z,10.37
2019-06-20T05:09:50.525Z,5.70
2019-06-20T05:12:20.459Z,5.70
2019-06-20T05:14:50.898Z,6.00
2019-06-20T05:17:30.981Z,6.90
2019-06-20T05:20:03.173Z,7.60
2019-06-20T05:26:02.548Z,6.50
2019-06-20T05:28:45.380Z,7.23
2019-06-20T05:34:21.356Z,6.97
2019-06-20T05:36:50.825Z,5.53
2019-06-20T05:39:20.738Z,5.37
2019-06-20T05:41:50.420Z,11.60
2019-06-20T05:44:22.745Z,5.47
2019-06-20T05:47:08.533Z,4.37
2019-06-20T05:49:24.952Z,8.23
2019-06-20T05:51:54.865Z,8.57
2019-06-20T05:54:27.073Z,5.97
2019-06-20T05:56:56.978Z,3.60
2019-06-20T05:59:48.653Z,5.03
2019-06-20T06:02:18.839Z,3.80
2019-06-20T06:04:50.853Z,3.27
2019-06-20T06:11:03.440Z,3.53
2019-06-20T06:13:44.712Z,4.10
2019-06-20T06:16:26.198Z,3.60
2019-06-20T06:18:58.363Z,3.93
2019-06-20T06:21:28.280Z,4.50
2019-06-20T06:24:00.516Z,3.43
2019-06-20T06:26:29.912Z,3.77
2019-06-20T06:28:59.194Z,3.17
2019-06-20T06:31:28.436Z,4.00
2019-06-20T06:33:57.685Z,3.93
2019-06-20T06:36:27.251Z,3.80
2019-06-20T06:38:56.569Z,5.93
2019-06-20T06:41:25.774Z,3.63
2019-06-20T06:43:55.331Z,3.90
2019-06-20T06:46:24.594Z,3.80
2019-06-20T06:48:53.860Z,3.20
2019-06-20T06:51:23.157Z,3.53
2019-06-20T06:53:52.861Z,3.70
2019-06-20T06:56:22.148Z,3.53
2019-06-20T06:58:51.436Z,3.97
2019-06-20T07:01:20.769Z,4.93
2019-06-20T07:03:50.046Z,5.03
2019-06-20T07:06:19.361Z,3.93
2019-06-20T07:08:48.721Z,3.70
2019-06-20T07:11:17.974Z,4.97
2019-06-20T07:13:47.210Z,4.73
2019-06-20T07:16:16.495Z,7.37
2019-06-20T07:18:45.694Z,4.80
2019-06-20T07:21:14.956Z,6.00
2019-06-20T07:23:44.265Z,5.47
2019-06-20T07:26:13.561Z,5.83
2019-06-20T07:28:42.777Z,6.47
2019-06-20T07:31:12.051Z,6.10
2019-06-20T07:33:41.291Z,5.63
2019-06-20T07:36:10.574Z,5.90
2019-06-20T07:38:39.788Z,4.83
2019-06-20T07:41:09.740Z,6.67
2019-06-20T07:43:39.026Z,5.17
2019-06-20T07:46:08.305Z,5.77
2019-06-20T07:48:37.566Z,5.07
2019-06-20T07:51:06.815Z,4.43
2019-06-20T07:53:36.048Z,4.43
2019-06-20T07:56:05.265Z,4.57
2019-06-20T07:58:34.555Z,4.77
2019-06-20T08:01:04.889Z,3.80
2019-06-20T08:03:37.738Z,3.73
2019-06-20T08:06:07.103Z,4.33
2019-06-20T08:44:37.718Z,3.77
2019-06-20T08:47:06.937Z,3.30
2019-06-20T08:49:36.237Z,4.20
2019-06-20T08:52:05.965Z,3.00
2019-06-20T08:54:35.271Z,3.17
2019-06-20T08:57:06.918Z,3.73
2019-06-20T08:59:36.298Z,2.90
2019-06-20T09:04:35.451Z,3.40
2019-06-20T09:09:34.861Z,3.13
2019-06-20T09:12:05.107Z,3.60
2019-06-20T09:14:34.906Z,4.00
2019-06-20T09:17:04.429Z,3.17
2019-06-20T09:19:36.591Z,3.00
2019-06-20T09:22:06.093Z,3.03
2019-06-20T09:24:35.517Z,3.23
2019-06-20T09:27:04.996Z,3.00
2019-06-20T09:29:42.056Z,3.53
2019-06-20T09:32:12.792Z,2.77
2019-06-20T09:34:42.329Z,3.80
2019-06-20T09:37:15.976Z,3.10
2019-06-20T09:39:47.134Z,3.73
2019-06-20T09:42:16.962Z,3.10
2019-06-20T09:44:58.736Z,3.07
2019-06-20T09:47:28.185Z,3.10
2019-06-20T09:49:59.042Z,2.93
2019-06-20T09:52:28.917Z,3.20
2019-06-20T09:55:00.574Z,3.20
2019-06-20T09:57:29.995Z,3.10
2019-06-20T10:00:09.676Z,3.20
2019-06-20T10:02:30.890Z,3.23
2019-06-20T10:05:00.279Z,3.10
2019-06-20T10:07:30.049Z,4.37
2019-06-20T10:10:01.676Z,3.63
2019-06-20T10:12:31.100Z,3.70
2019-06-20T10:15:00.936Z,3.43
2019-06-20T10:17:30.254Z,2.77
2019-06-20T10:20:00.870Z,5.63
2019-06-20T10:22:30.278Z,3.90
2019-06-20T10:28:28.663Z,2.93
2019-06-20T10:30:58.507Z,2.60
2019-06-20T10:33:27.903Z,2.90
2019-06-20T10:35:57.689Z,2.60
2019-06-20T10:38:27.467Z,3.60
2019-06-20T10:40:59.894Z,3.53
2019-06-20T10:43:27.701Z,3.10
2019-06-20T10:45:57.274Z,2.90
2019-06-20T10:48:26.576Z,2.80
2019-06-20T10:50:57.765Z,3.03
2019-06-20T10:53:27.055Z,2.80
2019-06-20T10:55:56.328Z,2.80
2019-06-20T10:58:25.660Z,2.90
2019-06-20T11:00:55.203Z,3.80
2019-06-20T11:03:24.412Z,6.13
2019-06-20T11:05:53.647Z,2.93
2019-06-20T11:08:23.153Z,3.27
2019-06-20T11:10:52.454Z,3.20
2019-06-20T11:13:21.688Z,3.20
2019-06-20T11:15:50.957Z,3.13
2019-06-20T11:18:20.204Z,5.53
2019-06-20T11:20:49.471Z,3.07
2019-06-20T11:23:18.703Z,3.03
2019-06-20T11:25:48.392Z,3.60
2019-06-20T11:28:17.708Z,3.27
2019-06-20T11:30:58.136Z,3.37
2019-06-20T11:33:17.959Z,4.07
2019-06-20T11:35:48.002Z,3.20
2019-06-20T11:38:17.262Z,3.40
2019-06-20T11:40:48.119Z,3.50
2019-06-20T11:43:17.453Z,2.77
2019-06-20T11:45:47.228Z,2.87
2019-06-20T11:48:16.516Z,3.47
2019-06-20T11:50:46.640Z,3.27
2019-06-20T11:53:16.158Z,3.50
2019-06-20T11:55:45.420Z,2.80
2019-06-20T11:58:14.726Z,4.07
2019-06-20T12:00:44.074Z,3.27
2019-06-20T12:03:13.370Z,3.70
2019-06-20T12:05:43.259Z,3.43
2019-06-20T12:08:12.883Z,3.97
2019-06-20T12:10:43.147Z,3.40
2019-06-20T12:13:12.456Z,4.13
2019-06-20T12:15:42.800Z,3.70
2019-06-20T12:18:12.259Z,4.03
2019-06-20T12:20:42.843Z,3.83
2019-06-20T12:23:12.362Z,3.87
2019-06-20T12:25:42.663Z,4.00
2019-06-20T12:28:12.431Z,4.10
2019-06-20T12:30:43.483Z,6.53
2019-06-20T12:33:12.857Z,4.43
2019-06-20T12:35:42.779Z,5.00
2019-06-20T12:38:15.060Z,4.10
2019-06-20T12:40:44.097Z,4.17
2019-06-20T12:43:13.857Z,7.37
2019-06-20T12:45:43.151Z,10.20
2019-06-20T12:48:12.426Z,5.27
2019-06-20T12:50:42.983Z,8.60
2019-06-20T12:53:12.525Z,8.97
2019-06-20T12:55:42.455Z,9.50
2019-06-20T12:58:11.907Z,12.47
2019-06-20T13:00:42.998Z,10.43
2019-06-20T13:03:12.275Z,12.47
2019-06-20T13:05:43.269Z,10.57
2019-06-20T13:08:13.727Z,12.93
2019-06-20T13:10:44.161Z,11.87
2019-06-20T13:13:13.511Z,10.67
2019-06-20T13:15:42.761Z,9.97
2019-06-20T13:18:14.389Z,9.57
2019-06-20T13:20:44.227Z,11.27
2019-06-20T13:23:13.893Z,12.03
2019-06-20T13:25:44.464Z,11.33
2019-06-20T13:28:14.262Z,12.60
2019-06-20T13:30:47.386Z,12.70
2019-06-20T13:33:15.052Z,17.90
2019-06-20T13:35:45.374Z,14.10
2019-06-20T13:38:14.779Z,14.67
2019-06-20T13:40:45.394Z,14.37
2019-06-20T13:43:14.965Z,14.20
2019-06-20T13:45:44.840Z,15.47
2019-06-20T13:48:15.287Z,16.13
2019-06-20T13:50:45.344Z,15.00
2019-06-20T13:53:14.723Z,18.27
2019-06-20T13:55:45.738Z,16.43
2019-06-20T13:58:23.496Z,17.70
2019-06-20T14:00:57.313Z,17.27
2019-06-20T14:03:33.187Z,16.73
2019-06-20T14:06:15.132Z,16.63
2019-06-20T14:08:50.312Z,19.23
2019-06-20T14:11:21.354Z,17.27
2019-06-20T14:13:54.457Z,21.23
2019-06-20T14:16:28.563Z,18.47
2019-06-20T14:19:08.434Z,19.10
2019-06-20T14:21:42.523Z,18.87
2019-06-20T14:24:20.240Z,19.87
2019-06-20T14:26:56.118Z,18.80
2019-06-20T14:29:32.767Z,22.03
2019-06-20T14:32:18.795Z,27.27
2019-06-20T14:34:43.661Z,22.17
2019-06-20T14:37:19.713Z,23.93
2019-06-20T14:39:51.052Z,21.57
2019-06-20T14:42:26.701Z,21.63
2019-06-20T14:45:00.692Z,20.60
2019-06-20T14:47:31.671Z,20.10
2019-06-20T14:50:04.111Z,17.80
2019-06-20T14:52:39.613Z,13.87
2019-06-20T14:55:15.199Z,12.73
2019-06-20T14:57:48.564Z,11.17
2019-06-20T15:00:25.421Z,10.97
2019-06-20T15:02:58.660Z,10.43
2019-06-20T15:05:34.727Z,9.60
2019-06-20T15:08:07.613Z,10.50
2019-06-20T15:11:04.087Z,9.43
2019-06-20T15:13:35.846Z,10.93
2019-06-20T15:16:06.426Z,11.23
2019-06-20T15:18:41.200Z,10.37
2019-06-20T15:21:12.963Z,9.47
2019-06-20T15:23:43.289Z,10.73
2019-06-20T15:26:17.342Z,12.57
2019-06-20T15:28:55.133Z,10.63
2019-06-20T15:31:35.716Z,9.40
2019-06-20T15:34:08.713Z,9.60
2019-06-20T15:36:42.020Z,10.00
2019-06-20T15:39:18.619Z,10.70
2019-06-20T15:41:50.060Z,10.17
2019-06-20T15:44:23.623Z,9.40
2019-06-20T15:46:53.359Z,9.30
2019-06-20T15:49:28.762Z,9.40
2019-06-20T15:51:59.811Z,9.33
2019-06-20T15:54:33.404Z,8.50
2019-06-20T15:57:06.586Z,8.27
2019-06-20T15:59:42.103Z,8.67
2019-06-20T16:02:14.294Z,7.77
2019-06-20T16:04:46.587Z,8.17
2019-06-20T16:07:17.616Z,8.57
2019-06-20T16:09:50.268Z,8.70
2019-06-20T16:12:22.642Z,7.90
2019-06-20T16:14:55.458Z,8.13
2019-06-20T16:17:28.088Z,7.37
2019-06-20T16:20:05.762Z,7.40
2019-06-20T16:22:37.421Z,8.17
2019-06-20T16:25:09.462Z,8.30
2019-06-20T16:27:42.009Z,8.73
2019-06-20T16:30:22.698Z,7.60
2019-06-20T16:32:55.367Z,9.50
2019-06-20T16:35:28.299Z,9.00
2019-06-20T16:38:00.651Z,7.43
2019-06-20T16:40:44.181Z,8.40
2019-06-20T16:43:16.335Z,11.60
2019-06-20T16:45:46.783Z,8.17
2019-06-20T16:48:21.653Z,9.77
2019-06-20T16:51:08.171Z,8.80
2019-06-20T16:53:52.617Z,8.80
2019-06-20T16:59:46.679Z,9.60
2019-06-20T17:02:30.895Z,8.67
2019-06-20T17:05:04.568Z,8.30
2019-06-20T17:13:25.383Z,7.03
2019-06-20T17:15:54.822Z,9.90
2019-06-20T17:18:25.793Z,6.73
2019-06-20T17:20:56.678Z,8.40
2019-06-20T17:31:23.591Z,6.00
2019-06-20T17:40:02.829Z,6.80
2019-06-20T17:42:38.418Z,8.23
2019-06-20T17:45:10.096Z,9.50
2019-06-20T17:47:40.846Z,7.13
2019-06-20T17:50:11.005Z,8.20
2019-06-20T17:52:51.781Z,8.43
2019-06-20T17:55:22.489Z,6.80
2019-06-20T17:57:55.912Z,7.93
2019-06-20T18:00:26.572Z,7.83
2019-06-20T18:05:37.248Z,9.77
2019-06-20T18:08:15.098Z,7.70
2019-06-20T18:22:14.433Z,11.07
2019-06-20T18:24:44.304Z,11.80
2019-06-20T18:27:14.446Z,9.57
2019-06-20T18:29:47.991Z,8.70
2019-06-20T18:32:17.523Z,7.23
2019-06-20T18:35:05.289Z,8.17
2019-06-20T18:37:33.603Z,7.57
2019-06-20T18:40:03.075Z,7.37
2019-06-20T19:52:06.325Z,9.97
2019-06-20T19:54:36.130Z,9.23
2019-06-20T20:00:46.305Z,9.03
2019-06-20T20:03:15.955Z,12.73
2019-06-20T20:05:45.676Z,10.43
2019-06-20T20:08:20.170Z,13.17
2019-06-20T20:16:12.698Z,10.87
2019-06-20T20:21:12.231Z,11.33
2019-06-20T20:23:41.723Z,13.63
2019-06-20T20:26:11.286Z,13.03
2019-06-20T20:28:40.530Z,11.47
2019-06-20T20:31:09.938Z,11.63
2019-06-20T20:33:41.926Z,15.43
2019-06-20T20:36:23.923Z,10.57
2019-06-20T20:38:42.858Z,15.30
2019-06-20T20:41:12.583Z,11.40
2019-06-20T20:43:42.313Z,12.57
2019-06-20T20:46:11.627Z,13.30
2019-06-20T20:48:43.265Z,14.30
2019-06-20T20:51:13.139Z,14.10
2019-06-20T20:53:45.337Z,18.10
2019-06-20T20:56:20.024Z,14.67
2019-06-20T20:58:49.681Z,14.10
2019-06-20T21:01:28.921Z,18.67
2019-06-20T21:03:58.867Z,19.73
2019-06-20T21:06:28.365Z,18.27
2019-06-20T21:08:57.746Z,20.00
2019-06-20T21:11:27.531Z,17.87
2019-06-20T21:13:56.888Z,22.97
2019-06-20T21:16:27.375Z,19.77
2019-06-20T21:18:57.181Z,18.60
2019-06-20T21:21:26.832Z,18.10
2019-06-20T21:23:56.462Z,19.80
2019-06-20T21:26:26.145Z,15.83
2019-06-20T21:28:55.859Z,21.83
2019-06-20T21:31:25.560Z,16.43
2019-06-20T21:33:54.818Z,20.53
2019-06-20T21:36:24.341Z,21.00
2019-06-20T21:38:55.596Z,15.83
2019-06-20T21:41:25.369Z,17.57
2019-06-20T21:43:54.713Z,19.50
2019-06-20T21:46:24.080Z,18.87
2019-06-20T21:48:53.381Z,21.23
2019-06-20T21:51:23.078Z,18.33
2019-06-20T21:53:52.648Z,20.07
2019-06-20T21:56:21.947Z,19.47
2019-06-20T21:58:51.295Z,18.43
2019-06-20T22:01:20.749Z,20.70
2019-06-20T22:03:50.111Z,21.07
2019-06-20T22:06:23.721Z,19.60
2019-06-20T22:08:50.417Z,20.30
2019-06-20T22:11:19.685Z,22.67
2019-06-20T22:13:48.924Z,22.43
2019-06-20T22:16:18.473Z,19.40
2019-06-20T22:18:47.730Z,21.90
2019-06-20T22:21:16.969Z,20.97
2019-06-20T22:23:49.149Z,24.00
2019-06-20T22:26:18.436Z,22.27
2019-06-20T22:28:47.719Z,19.10
2019-06-20T22:31:17.009Z,20.47
2019-06-20T22:33:46.278Z,21.53
2019-06-20T22:36:15.604Z,19.77
2019-06-20T22:38:45.354Z,20.60
2019-06-20T22:41:14.572Z,19.43
2019-06-20T22:43:43.900Z,20.27
2019-06-20T22:46:13.414Z,21.07
2019-06-20T22:48:42.776Z,21.27
2019-06-20T22:51:13.823Z,23.83
2019-06-20T22:53:43.628Z,23.30
2019-06-20T22:56:12.852Z,22.90
2019-06-20T22:58:42.201Z,25.27
2019-06-20T23:01:11.443Z,22.27
2019-06-20T23:03:40.807Z,23.27
2019-06-20T23:06:10.049Z,19.83
2019-06-20T23:08:39.322Z,21.50
2019-06-20T23:11:08.642Z,17.10
2019-06-20T23:13:38.181Z,21.50
2019-06-20T23:16:07.397Z,19.17
2019-06-20T23:18:36.663Z,19.17
2019-06-20T23:21:05.954Z,17.47
2019-06-20T23:23:35.231Z,17.87
2019-06-20T23:26:06.162Z,21.93
2019-06-20T23:28:35.443Z,19.10
2019-06-20T23:31:04.693Z,20.77
2019-06-20T23:33:34.018Z,15.83
2019-06-20T23:36:03.278Z,14.40
2019-06-20T23:38:32.538Z,17.27
2019-06-20T23:41:01.855Z,17.83
2019-06-20T23:43:31.107Z,15.23
2019-06-20T23:46:00.355Z,12.37
2019-06-20T23:48:29.876Z,13.17
2019-06-20T23:50:59.754Z,15.93
2019-06-20T23:53:29.036Z,12.60
2019-06-20T23:55:58.640Z,11.50
2019-06-20T23:58:27.909Z,11.73
